Time;durP1;ratioP1;P1;durP2;ratioP2;P2;SDS_P1;SDS_P2;PMS_P1;PMS_P2;Temp;Humidity;BMP_temperature;BMP_pressure;BME280_temperature;BME280_humidity;BME280_pressure;Samples;Min_cycle;Max_cycle;Signal;HPM_P1;HPM_P2
2023/08/20 00:02:09;;;;;;;27.77;5.60;;;29.30;55.00;;;;;;5068731;28;20198;-74
2023/08/20 00:04:38;;;;;;;26.67;5.93;;;29.30;55.60;;;;;;5068418;28;20679;-74
2023/08/20 00:07:05;;;;;;;26.57;5.90;;;29.30;55.00;;;;;;5067604;28;20279;-73
2023/08/20 00:09:33;;;;;;;29.03;5.90;;;29.30;55.00;;;;;;5068280;28;20710;-74
2023/08/20 00:12:02;;;;;;;27.03;5.63;;;29.30;55.00;;;;;;5058727;28;20614;-74
2023/08/20 00:14:54;;;;;;;52.70;7.93;;;29.30;55.00;;;;;;5046680;28;20258;-73
2023/08/20 00:17:21;;;;;;;28.17;5.63;;;29.30;55.00;;;;;;5067285;28;20207;-74
2023/08/20 00:19:50;;;;;;;29.00;6.60;;;29.30;55.00;;;;;;5067753;28;20298;-73
2023/08/20 00:22:17;;;;;;;60.43;8.57;;;29.30;55.00;;;;;;5053944;28;20203;-75
2023/08/20 00:24:45;;;;;;;31.67;5.83;;;29.30;55.00;;;;;;5067937;28;20298;-73
2023/08/20 00:27:13;;;;;;;28.40;5.73;;;29.30;55.30;;;;;;5062252;28;20287;-77
2023/08/20 00:29:40;;;;;;;24.17;5.23;;;29.30;55.00;;;;;;5062761;28;20296;-77
2023/08/20 00:32:07;;;;;;;29.03;6.10;;;29.30;55.00;;;;;;5056393;28;20656;-77
2023/08/20 00:34:34;;;;;;;34.33;6.13;;;29.30;55.00;;;;;;5047694;28;20231;-76
2023/08/20 00:37:02;;;;;;;26.40;5.33;;;29.30;55.00;;;;;;5050340;28;20742;-78
2023/08/20 00:39:29;;;;;;;29.83;5.57;;;29.30;55.00;;;;;;5066520;28;20207;-75
2023/08/20 00:41:56;;;;;;;27.23;5.63;;;29.20;54.90;;;;;;5066701;28;20312;-77
2023/08/20 00:44:25;;;;;;;25.57;5.43;;;29.20;54.90;;;;;;5059097;28;20290;-77
2023/08/20 00:46:53;;;;;;;38.43;6.73;;;29.20;54.90;;;;;;5047588;28;20204;-76
2023/08/20 00:49:20;;;;;;;28.17;5.73;;;29.30;55.00;;;;;;5046593;28;20255;-76
2023/08/20 00:51:47;;;;;;;26.10;5.30;;;29.20;54.90;;;;;;5047488;28;20759;-78
2023/08/20 00:54:14;;;;;;;29.27;6.00;;;29.20;54.90;;;;;;5048031;28;20236;-76
2023/08/20 00:56:41;;;;;;;24.37;5.80;;;29.20;54.90;;;;;;5047931;28;20200;-77
2023/08/20 00:59:08;;;;;;;22.50;4.93;;;29.20;54.90;;;;;;5054881;28;20231;-78
2023/08/20 01:01:37;;;;;;;28.27;5.53;;;29.20;54.90;;;;;;5066839;28;20210;-77
2023/08/20 01:04:04;;;;;;;30.03;5.93;;;29.20;54.90;;;;;;5066861;28;20290;-78
2023/08/20 01:06:45;;;;;;;20.17;5.57;;;29.20;55.00;;;;;;5051281;28;20203;-77
2023/08/20 01:09:20;;;;;;;28.83;6.10;;;29.20;54.90;;;;;;5047081;28;20288;-77
2023/08/20 01:11:53;;;;;;;29.30;5.77;;;29.20;54.90;;;;;;5053488;28;20226;-78
2023/08/20 01:14:19;;;;;;;25.87;5.77;;;29.20;54.90;;;;;;5052762;28;20238;-78
2023/08/20 01:16:49;;;;;;;28.10;5.87;;;29.20;54.90;;;;;;5047453;28;20243;-77
2023/08/20 01:19:19;;;;;;;20.13;5.30;;;29.20;54.90;;;;;;5059211;28;20768;-76
2023/08/20 01:22:06;;;;;;;24.77;5.17;;;29.10;54.80;;;;;;5051359;28;20282;-76
2023/08/20 01:24:55;;;;;;;26.87;6.00;;;29.10;54.80;;;;;;5047457;28;20622;-78
2023/08/20 01:27:41;;;;;;;28.17;5.97;;;29.10;55.40;;;;;;5051866;28;20211;-78
2023/08/20 01:30:10;;;;;;;29.43;5.80;;;29.10;54.80;;;;;;5051128;28;20207;-78
2023/08/20 01:32:41;;;;;;;35.80;7.03;;;29.10;54.90;;;;;;5051482;28;20700;-78
2023/08/20 01:35:09;;;;;;;24.73;5.47;;;29.10;54.80;;;;;;5052425;28;20677;-77
2023/08/20 01:37:36;;;;;;;22.30;4.80;;;29.10;54.90;;;;;;5051745;28;20200;-77
2023/08/20 01:40:04;;;;;;;26.93;5.53;;;29.10;54.90;;;;;;5065264;28;20274;-77
2023/08/20 01:42:31;;;;;;;23.00;5.50;;;29.10;54.90;;;;;;5069049;28;20690;-78
2023/08/20 01:44:58;;;;;;;29.10;5.97;;;29.10;54.90;;;;;;5057434;28;20196;-77
2023/08/20 01:47:26;;;;;;;31.23;5.83;;;29.10;54.90;;;;;;5051110;28;20295;-78
2023/08/20 01:49:53;;;;;;;30.07;5.97;;;29.00;54.80;;;;;;5055135;28;20196;-76
2023/08/20 01:52:20;;;;;;;23.40;5.27;;;29.10;54.90;;;;;;5051650;28;20194;-78
2023/08/20 01:54:47;;;;;;;30.70;6.10;;;29.10;54.90;;;;;;5051253;28;20277;-76
2023/08/20 01:57:14;;;;;;;31.23;6.47;;;29.10;54.90;;;;;;5050970;28;20204;-77
2023/08/20 01:59:41;;;;;;;32.77;5.97;;;29.00;54.90;;;;;;5057646;28;20230;-77
2023/08/20 02:02:08;;;;;;;27.30;5.60;;;29.00;54.80;;;;;;5051169;28;20214;-77
2023/08/20 02:04:36;;;;;;;26.17;5.67;;;29.00;55.50;;;;;;5057879;28;20207;-76
2023/08/20 02:07:03;;;;;;;25.87;5.57;;;29.00;54.90;;;;;;5070599;28;20203;-77
2023/08/20 02:09:30;;;;;;;28.83;5.80;;;29.00;54.90;;;;;;5063836;28;20287;-76
2023/08/20 02:11:57;;;;;;;28.73;5.70;;;29.00;54.90;;;;;;5055931;28;20200;-77
2023/08/20 02:14:24;;;;;;;20.37;4.80;;;29.00;54.90;;;;;;5070485;28;20438;-76
2023/08/20 02:16:50;;;;;;;41.70;6.90;;;29.00;54.90;;;;;;5063920;28;20763;-77
2023/08/20 02:19:17;;;;;;;29.43;5.53;;;29.00;54.90;;;;;;5052045;28;20308;-77
2023/08/20 02:21:46;;;;;;;30.80;6.37;;;29.00;54.90;;;;;;5050224;28;20295;-77
2023/08/20 02:24:13;;;;;;;26.37;5.43;;;29.00;54.90;;;;;;5061477;28;20318;-76
2023/08/20 02:26:40;;;;;;;26.10;5.23;;;29.00;54.90;;;;;;5070478;28;20207;-75
2023/08/20 02:29:06;;;;;;;26.73;5.60;;;29.00;54.90;;;;;;5070364;28;20221;-75
2023/08/20 02:31:33;;;;;;;47.77;7.77;;;29.00;54.90;;;;;;5069105;28;20202;-78
2023/08/20 02:34:00;;;;;;;32.67;6.67;;;29.00;54.90;;;;;;5068338;28;20303;-78
2023/08/20 02:36:27;;;;;;;20.30;5.00;;;28.90;54.80;;;;;;5057709;28;20246;-76
2023/08/20 02:38:56;;;;;;;36.23;6.70;;;29.00;54.90;;;;;;5049061;28;20210;-78
2023/08/20 02:41:23;;;;;;;27.70;5.50;;;28.90;54.80;;;;;;5059082;28;20656;-78
2023/08/20 02:43:50;;;;;;;27.07;5.50;;;29.00;54.90;;;;;;5067271;28;20298;-78
2023/08/20 02:46:17;;;;;;;28.20;5.70;;;28.90;54.80;;;;;;5065558;28;20290;-77
2023/08/20 02:48:43;;;;;;;25.73;5.60;;;28.90;54.80;;;;;;5068710;28;20240;-77
2023/08/20 02:51:10;;;;;;;25.67;5.37;;;28.90;54.80;;;;;;5070161;28;20204;-77
2023/08/20 02:53:37;;;;;;;26.20;5.77;;;28.90;54.80;;;;;;5069795;28;20286;-77
2023/08/20 02:56:06;;;;;;;31.53;5.60;;;28.90;54.80;;;;;;5068745;28;20262;-78
2023/08/20 02:58:33;;;;;;;22.97;5.10;;;28.90;54.80;;;;;;5055250;28;20288;-77
2023/08/20 03:01:00;;;;;;;30.97;5.67;;;28.80;54.80;;;;;;5060790;28;20298;-77
2023/08/20 03:03:27;;;;;;;31.87;6.13;;;28.90;54.80;;;;;;5069830;28;20203;-78
2023/08/20 03:05:54;;;;;;;25.10;5.33;;;28.90;54.90;;;;;;5059084;28;20234;-78
2023/08/20 03:08:21;;;;;;;23.73;5.27;;;28.80;54.80;;;;;;5049764;28;20207;-77
2023/08/20 03:10:48;;;;;;;28.90;6.00;;;28.80;54.80;;;;;;5063656;28;20206;-78
2023/08/20 03:13:16;;;;;;;26.57;5.77;;;28.80;55.40;;;;;;5070016;28;20207;-77
2023/08/20 03:15:43;;;;;;;24.57;5.30;;;28.80;54.80;;;;;;5062953;28;20236;-77
2023/08/20 03:18:10;;;;;;;29.33;6.17;;;28.80;54.80;;;;;;5067796;28;20247;-77
2023/08/20 03:20:37;;;;;;;36.07;6.60;;;28.80;54.80;;;;;;5059324;28;20192;-78
2023/08/20 03:23:04;;;;;;;29.10;5.73;;;28.80;54.80;;;;;;5068912;28;20210;-77
2023/08/20 03:25:31;;;;;;;27.03;5.53;;;28.80;54.80;;;;;;5053478;28;20227;-78
2023/08/20 03:27:58;;;;;;;28.53;5.77;;;28.80;54.80;;;;;;5069247;28;20203;-78
2023/08/20 03:30:27;;;;;;;26.90;5.37;;;28.80;54.80;;;;;;5067524;28;20195;-79
2023/08/20 03:32:54;;;;;;;25.03;5.73;;;28.80;54.80;;;;;;5069001;28;20183;-75
2023/08/20 03:35:21;;;;;;;26.93;5.27;;;28.70;54.80;;;;;;5062550;28;20339;-77
2023/08/20 03:37:48;;;;;;;31.60;5.73;;;28.80;54.80;;;;;;5069271;28;20265;-77
2023/08/20 03:40:15;;;;;;;27.97;5.73;;;28.80;54.80;;;;;;5067056;28;20282;-77
2023/08/20 03:42:42;;;;;;;24.70;5.50;;;28.70;54.70;;;;;;5067731;28;20569;-76
2023/08/20 03:45:09;;;;;;;36.60;6.43;;;28.70;54.80;;;;;;5060484;28;20222;-77
2023/08/20 03:47:37;;;;;;;28.43;5.73;;;28.70;54.70;;;;;;5068194;28;20203;-76
2023/08/20 03:50:05;;;;;;;37.53;6.37;;;28.70;54.70;;;;;;5062348;28;20199;-75
2023/08/20 03:52:32;;;;;;;25.53;5.53;;;28.70;54.80;;;;;;5059145;28;20227;-76
2023/08/20 03:54:59;;;;;;;35.70;6.37;;;28.70;54.70;;;;;;5068807;28;20227;-75
2023/08/20 03:57:26;;;;;;;22.73;5.20;;;28.70;54.80;;;;;;5066939;28;20278;-76
2023/08/20 03:59:53;;;;;;;24.20;5.30;;;28.70;54.80;;;;;;5062989;28;20196;-76
2023/08/20 04:02:20;;;;;;;28.90;5.80;;;28.70;54.80;;;;;;5048831;28;20200;-75
2023/08/20 04:04:48;;;;;;;29.13;5.53;;;28.70;54.80;;;;;;5048341;28;20297;-75
2023/08/20 04:07:15;;;;;;;25.80;5.67;;;28.70;54.80;;;;;;5048349;28;20204;-75
2023/08/20 04:09:42;;;;;;;43.23;7.07;;;28.70;54.80;;;;;;5047900;28;20287;-75
2023/08/20 04:12:09;;;;;;;28.03;5.57;;;28.70;54.80;;;;;;5068194;28;20188;-76
2023/08/20 04:14:36;;;;;;;30.87;5.80;;;28.70;54.80;;;;;;5065512;28;20995;-77
2023/08/20 04:17:03;;;;;;;24.70;5.33;;;28.70;54.80;;;;;;5048260;28;20299;-76
2023/08/20 04:19:30;;;;;;;39.97;6.73;;;28.60;54.80;;;;;;5047145;28;20230;-78
2023/08/20 04:21:58;;;;;;;26.00;5.53;;;28.60;54.70;;;;;;5048489;28;20204;-76
2023/08/20 04:24:25;;;;;;;27.20;5.53;;;28.60;54.70;;;;;;5047934;28;20284;-77
2023/08/20 04:26:52;;;;;;;34.17;6.50;;;28.60;54.80;;;;;;5047537;28;20664;-77
2023/08/20 04:29:19;;;;;;;33.63;6.60;;;28.60;54.80;;;;;;5051209;28;20208;-78
2023/08/20 04:31:46;;;;;;;44.93;7.53;;;28.60;54.80;;;;;;5066762;28;20206;-78
2023/08/20 04:34:13;;;;;;;32.80;6.10;;;28.60;54.80;;;;;;5050636;28;20204;-78
2023/08/20 04:36:40;;;;;;;32.27;6.17;;;28.50;54.70;;;;;;5047955;28;20662;-78
2023/08/20 04:39:08;;;;;;;36.20;6.30;;;28.60;54.80;;;;;;5049159;28;20203;-77
2023/08/20 04:41:35;;;;;;;26.73;5.53;;;28.50;54.70;;;;;;5067091;28;20282;-77
2023/08/20 04:44:02;;;;;;;26.27;5.63;;;28.50;54.70;;;;;;5062054;28;20202;-78
2023/08/20 04:46:29;;;;;;;27.85;5.90;;;28.50;54.70;;;;;;5066195;28;20454;-74
2023/08/20 04:48:56;;;;;;;35.70;6.07;;;28.50;54.80;;;;;;5067063;28;20192;-74
2023/08/20 04:51:23;;;;;;;32.10;6.13;;;28.50;54.90;;;;;;5062679;28;20198;-74
2023/08/20 04:53:50;;;;;;;30.87;5.80;;;28.50;54.80;;;;;;5067910;28;20195;-74
2023/08/20 04:56:18;;;;;;;27.40;5.67;;;28.50;54.70;;;;;;5047139;28;20322;-74
2023/08/20 04:58:45;;;;;;;45.90;7.20;;;28.50;54.70;;;;;;5049282;28;20204;-75
2023/08/20 05:01:12;;;;;;;23.60;5.60;;;28.50;54.70;;;;;;5047182;28;20204;-75
2023/08/20 05:03:39;;;;;;;44.47;7.13;;;28.50;54.70;;;;;;5048017;28;20271;-74
2023/08/20 05:06:06;;;;;;;36.47;6.63;;;28.50;54.70;;;;;;5064716;28;20247;-74
2023/08/20 05:08:33;;;;;;;29.70;5.87;;;28.50;54.70;;;;;;5061419;28;20310;-74
2023/08/20 05:11:01;;;;;;;52.20;7.93;;;28.40;54.60;;;;;;5059149;28;20199;-74
2023/08/20 05:13:29;;;;;;;29.83;6.00;;;28.50;54.70;;;;;;5066425;28;20207;-74
2023/08/20 05:15:56;;;;;;;29.00;6.00;;;28.50;54.70;;;;;;5067502;28;20318;-74
2023/08/20 05:18:23;;;;;;;27.00;5.43;;;28.50;54.70;;;;;;5067953;28;20192;-74
2023/08/20 05:20:50;;;;;;;27.47;5.20;;;28.50;54.70;;;;;;5062916;28;20205;-74
2023/08/20 05:23:17;;;;;;;27.53;5.73;;;28.40;54.70;;;;;;5060007;28;20206;-74
2023/08/20 05:25:44;;;;;;;21.83;5.27;;;28.40;54.60;;;;;;5047547;28;20204;-74
2023/08/20 05:28:10;;;;;;;27.43;5.97;;;28.40;54.70;;;;;;5047326;28;20196;-74
2023/08/20 05:30:39;;;;;;;31.90;6.23;;;28.40;54.60;;;;;;5046925;28;20962;-74
2023/08/20 05:33:06;;;;;;;26.60;5.20;;;28.40;54.60;;;;;;5047594;28;20307;-74
2023/08/20 05:35:33;;;;;;;29.63;6.10;;;28.40;54.60;;;;;;5047460;28;20267;-74
2023/08/20 05:37:59;;;;;;;24.23;4.97;;;28.40;54.60;;;;;;5050108;28;20210;-74
2023/08/20 05:40:26;;;;;;;45.27;6.83;;;28.40;54.70;;;;;;5046192;28;20196;-74
2023/08/20 05:42:53;;;;;;;26.47;5.27;;;28.40;54.60;;;;;;5047755;28;20283;-74
2023/08/20 05:45:20;;;;;;;27.13;5.37;;;28.40;54.60;;;;;;5047819;28;20220;-75
2023/08/20 05:47:48;;;;;;;27.13;5.40;;;28.40;54.60;;;;;;5047292;28;20200;-74
2023/08/20 05:50:20;;;;;;;42.40;6.70;;;28.40;54.60;;;;;;5046223;28;20656;-74
2023/08/20 05:52:47;;;;;;;29.27;5.53;;;28.40;54.70;;;;;;5059996;28;20196;-74
2023/08/20 05:55:15;;;;;;;39.27;6.37;;;28.40;54.70;;;;;;5066170;28;20247;-74
2023/08/20 05:57:42;;;;;;;26.63;5.03;;;28.30;54.60;;;;;;5065619;28;20674;-74
2023/08/20 06:00:10;;;;;;;40.80;6.93;;;28.40;54.70;;;;;;5065037;28;20690;-74
2023/08/20 06:02:37;;;;;;;22.07;5.07;;;28.40;54.70;;;;;;5054336;28;20205;-71
2023/08/20 06:05:06;;;;;;;33.93;6.27;;;28.40;54.70;;;;;;5047239;28;20212;-72
2023/08/20 06:07:33;;;;;;;41.57;6.70;;;28.40;54.70;;;;;;5048705;28;20287;-71
2023/08/20 06:10:00;;;;;;;26.47;5.07;;;28.40;54.70;;;;;;5067547;28;20670;-72
2023/08/20 06:12:27;;;;;;;24.93;5.20;;;28.30;54.70;;;;;;5062331;28;20211;-76
2023/08/20 06:14:57;;;;;;;23.97;4.87;;;28.40;54.80;;;;;;5070746;28;20203;-72
2023/08/20 06:17:24;;;;;;;28.07;5.53;;;28.40;54.80;;;;;;5060980;28;20704;-72
2023/08/20 06:19:51;;;;;;;25.63;5.17;;;28.30;54.70;;;;;;5050420;28;20206;-72
2023/08/20 06:22:19;;;;;;;22.07;4.93;;;28.40;54.90;;;;;;5053583;28;20204;-75
2023/08/20 06:24:46;;;;;;;29.17;5.83;;;28.30;54.80;;;;;;5050339;28;20211;-77
2023/08/20 06:27:13;;;;;;;29.13;5.87;;;28.30;54.80;;;;;;5054803;28;20286;-75
2023/08/20 06:29:40;;;;;;;34.33;6.53;;;28.40;54.90;;;;;;5068209;28;20196;-76
2023/08/20 06:32:07;;;;;;;24.47;5.27;;;28.30;54.80;;;;;;5052903;28;20242;-73
2023/08/20 06:34:35;;;;;;;24.63;5.20;;;28.40;54.90;;;;;;5050571;28;20291;-75
2023/08/20 06:38:53;;;;;;;31.10;6.33;;;28.40;54.30;;;;;;5097889;27;21146;-75
2023/08/20 06:41:20;;;;;;;34.67;7.37;;;28.40;54.80;;;;;;5084099;28;20326;-72
2023/08/20 06:43:47;;;;;;;27.73;6.23;;;28.40;54.80;;;;;;5088706;28;20205;-75
2023/08/20 06:46:13;;;;;;;20.00;4.93;;;28.40;54.80;;;;;;5085498;28;20213;-74
2023/08/20 06:48:40;;;;;;;30.17;6.40;;;28.40;54.90;;;;;;5085454;28;20293;-72
2023/08/20 06:51:12;;;;;;;24.43;5.67;;;28.40;54.80;;;;;;5085700;28;20278;-76
2023/08/20 06:53:40;;;;;;;25.37;5.67;;;28.40;54.90;;;;;;5085132;28;20195;-73
2023/08/20 06:56:09;;;;;;;25.37;5.87;;;28.40;54.90;;;;;;5085245;28;20225;-76
2023/08/20 06:58:36;;;;;;;38.33;7.00;;;28.40;54.90;;;;;;5084377;28;20226;-72
2023/08/20 07:01:08;;;;;;;20.43;5.30;;;28.40;54.90;;;;;;5082622;28;20632;-73
2023/08/20 07:03:35;;;;;;;51.13;8.37;;;28.40;54.90;;;;;;5081390;28;20290;-73
2023/08/20 07:06:03;;;;;;;25.97;5.37;;;28.40;54.80;;;;;;5083711;28;20206;-74
2023/08/20 07:08:30;;;;;;;22.57;5.77;;;28.40;54.80;;;;;;5084617;28;20202;-72
2023/08/20 07:10:57;;;;;;;37.90;6.93;;;28.40;54.80;;;;;;5084533;28;20285;-73
2023/08/20 07:13:25;;;;;;;20.13;5.30;;;28.40;54.80;;;;;;5084092;28;20226;-74
2023/08/20 07:15:52;;;;;;;39.70;7.20;;;28.40;54.80;;;;;;5083124;28;20484;-75
2023/08/20 07:18:19;;;;;;;38.53;6.53;;;28.50;54.80;;;;;;5071645;28;20223;-76
2023/08/20 07:20:46;;;;;;;25.13;5.33;;;28.50;55.40;;;;;;5083928;28;20209;-77
2023/08/20 07:26:05;;;;;;;25.37;5.30;;;28.50;54.20;;;;;;5092692;27;20634;-71
2023/08/20 07:31:13;;;;;;;21.63;4.83;;;28.40;54.70;;;;;;5084833;28;20194;-77
2023/08/20 07:33:40;;;;;;;25.83;5.13;;;28.50;54.70;;;;;;5085446;28;20918;-76
2023/08/20 07:36:07;;;;;;;25.83;5.20;;;28.50;54.70;;;;;;5085239;28;20201;-78
2023/08/20 07:38:34;;;;;;;22.13;5.23;;;28.50;54.70;;;;;;5085038;28;20202;-74
2023/08/20 07:41:02;;;;;;;25.07;5.70;;;28.50;54.80;;;;;;5085016;28;20202;-77
2023/08/20 07:43:29;;;;;;;24.70;5.07;;;28.50;54.80;;;;;;5085003;28;20318;-74
2023/08/20 07:45:56;;;;;;;27.43;5.43;;;28.50;54.80;;;;;;5085116;28;20290;-75
2023/08/20 07:48:23;;;;;;;25.27;5.60;;;28.50;54.80;;;;;;5085123;28;20275;-78
2023/08/20 07:50:50;;;;;;;24.17;5.33;;;28.50;54.80;;;;;;5084695;28;20283;-78
2023/08/20 07:53:17;;;;;;;35.00;6.53;;;28.50;54.80;;;;;;5083126;28;20716;-77
2023/08/20 07:55:44;;;;;;;28.83;5.87;;;28.60;54.80;;;;;;5085455;28;20278;-76
2023/08/20 07:58:12;;;;;;;22.97;5.63;;;28.60;54.90;;;;;;5084815;28;20199;-77
2023/08/20 08:00:39;;;;;;;18.00;4.40;;;28.60;54.90;;;;;;5084923;28;20306;-78
2023/08/20 08:03:06;;;;;;;23.93;5.23;;;28.60;54.90;;;;;;5070203;28;20307;-77
2023/08/20 08:05:33;;;;;;;18.67;4.70;;;28.60;54.90;;;;;;5064285;28;20330;-77
2023/08/20 08:08:00;;;;;;;30.77;6.20;;;28.70;55.00;;;;;;5079420;28;20282;-77
2023/08/20 08:10:27;;;;;;;24.00;5.13;;;28.60;55.00;;;;;;5084069;28;20302;-76
2023/08/20 08:12:53;;;;;;;25.93;5.40;;;28.70;55.00;;;;;;5084577;28;20205;-75
2023/08/20 08:15:22;;;;;;;25.73;5.30;;;28.70;55.00;;;;;;5084822;28;20309;-77
2023/08/20 08:17:49;;;;;;;22.90;5.27;;;28.70;55.00;;;;;;5084724;28;20202;-74
2023/08/20 08:20:16;;;;;;;21.77;5.10;;;28.70;55.00;;;;;;5084272;28;20292;-78
2023/08/20 08:22:42;;;;;;;27.90;5.40;;;28.70;54.90;;;;;;5084625;28;20341;-78
2023/08/20 08:25:10;;;;;;;29.03;5.67;;;28.80;55.00;;;;;;5083986;28;20231;-78
2023/08/20 08:27:37;;;;;;;20.50;5.33;;;28.80;55.00;;;;;;5084547;28;20195;-76
2023/08/20 08:30:05;;;;;;;23.73;5.43;;;28.80;55.00;;;;;;5084188;28;20230;-78
2023/08/20 08:32:33;;;;;;;23.03;5.43;;;28.80;55.00;;;;;;5084143;28;20206;-77
2023/08/20 08:35:00;;;;;;;30.90;5.83;;;28.80;55.00;;;;;;5081023;28;20706;-73
2023/08/20 08:37:27;;;;;;;24.30;5.50;;;28.80;55.50;;;;;;5070417;28;20298;-75
2023/08/20 08:39:54;;;;;;;28.37;5.60;;;28.80;55.00;;;;;;5051913;28;20236;-75
2023/08/20 08:42:23;;;;;;;23.33;5.13;;;28.80;55.00;;;;;;5051055;28;20220;-77
2023/08/20 08:44:51;;;;;;;32.20;6.03;;;28.90;55.00;;;;;;5050725;28;20219;-75
2023/08/20 08:47:18;;;;;;;30.37;5.97;;;29.00;55.10;;;;;;5050553;28;20287;-75
2023/08/20 08:49:48;;;;;;;26.23;5.27;;;29.00;55.10;;;;;;5050516;28;20203;-78
2023/08/20 08:52:16;;;;;;;31.20;5.97;;;29.00;55.10;;;;;;5050552;28;20247;-77
2023/08/20 08:54:44;;;;;;;23.53;5.23;;;29.00;55.00;;;;;;5050715;28;20240;-77
2023/08/20 08:57:11;;;;;;;31.43;5.77;;;29.00;55.00;;;;;;5050393;28;20215;-74
2023/08/20 08:59:39;;;;;;;24.93;5.10;;;29.10;55.10;;;;;;5050396;28;20243;-76
2023/08/20 09:02:10;;;;;;;31.07;5.63;;;29.10;55.10;;;;;;5050206;28;20188;-78
2023/08/20 09:04:39;;;;;;;24.80;4.97;;;29.10;55.10;;;;;;5058584;28;20231;-77
2023/08/20 09:07:12;;;;;;;27.07;5.73;;;29.20;55.10;;;;;;5069976;28;20188;-78
2023/08/20 09:09:43;;;;;;;20.97;4.73;;;29.20;55.10;;;;;;5069244;28;20213;-72
2023/08/20 09:12:14;;;;;;;20.63;5.17;;;29.20;55.10;;;;;;5069856;28;20302;-71
2023/08/20 09:14:44;;;;;;;32.13;5.87;;;29.30;55.20;;;;;;5070118;28;20215;-71
2023/08/20 09:17:12;;;;;;;25.47;5.50;;;29.30;55.10;;;;;;5070023;28;20230;-71
2023/08/20 09:19:39;;;;;;;23.97;5.27;;;29.30;55.10;;;;;;5070228;28;20234;-74
2023/08/20 09:22:07;;;;;;;22.63;5.03;;;29.30;55.00;;;;;;5069671;28;20246;-71
2023/08/20 09:24:39;;;;;;;20.07;5.00;;;29.40;55.10;;;;;;5069600;28;20776;-75
2023/08/20 09:27:06;;;;;;;27.50;5.73;;;29.40;55.10;;;;;;5053355;28;20210;-76
2023/08/20 09:29:35;;;;;;;23.33;5.23;;;29.40;55.10;;;;;;5050260;28;20307;-75
2023/08/20 09:32:03;;;;;;;34.73;6.10;;;29.50;55.10;;;;;;5056664;28;20208;-76
2023/08/20 09:34:39;;;;;;;22.70;5.70;;;29.50;55.10;;;;;;5057616;28;20227;-71
2023/08/20 09:37:11;;;;;;;33.17;6.07;;;29.60;55.10;;;;;;5049463;28;20214;-71
2023/08/20 09:39:38;;;;;;;23.53;5.10;;;29.60;55.00;;;;;;5049652;28;20212;-71
2023/08/20 09:42:06;;;;;;;26.83;5.40;;;29.60;55.00;;;;;;5049887;28;20207;-71
2023/08/20 09:44:36;;;;;;;23.30;5.30;;;29.70;55.00;;;;;;5049695;28;20228;-72
2023/08/20 09:47:05;;;;;;;23.70;4.97;;;29.70;55.00;;;;;;5048509;28;20195;-75
2023/08/20 09:49:37;;;;;;;24.40;5.37;;;29.80;55.00;;;;;;5049649;28;20192;-78
2023/08/20 09:52:07;;;;;;;26.83;5.87;;;29.80;54.90;;;;;;5049349;28;20214;-76
2023/08/20 09:54:50;;;;;;;21.63;5.03;;;29.90;55.00;;;;;;5049463;28;20212;-77
2023/08/20 09:57:29;;;;;;;24.70;5.87;;;29.90;54.90;;;;;;5049252;28;20291;-73
2023/08/20 09:59:57;;;;;;;26.50;5.40;;;30.00;54.90;;;;;;5068223;28;20872;-74
2023/08/20 10:02:26;;;;;;;30.03;5.67;;;30.00;54.80;;;;;;5068670;28;20187;-72
2023/08/20 10:04:53;;;;;;;28.60;6.00;;;30.00;54.80;;;;;;5068558;28;20211;-76
2023/08/20 10:07:21;;;;;;;25.30;5.37;;;30.10;54.80;;;;;;5069700;28;20294;-73
2023/08/20 10:09:52;;;;;;;22.93;5.17;;;30.20;54.80;;;;;;5069633;28;20245;-72
2023/08/20 10:12:19;;;;;;;27.70;5.73;;;30.20;54.70;;;;;;5068894;28;20183;-76
2023/08/20 10:14:46;;;;;;;22.57;5.33;;;30.20;54.60;;;;;;5068805;28;20227;-77
2023/08/20 10:17:15;;;;;;;29.13;5.67;;;30.30;54.60;;;;;;5068500;28;20241;-77
2023/08/20 10:19:42;;;;;;;14.00;4.23;;;30.30;54.60;;;;;;5069388;28;20200;-76
2023/08/20 10:22:09;;;;;;;24.70;5.07;;;30.40;54.60;;;;;;5069060;28;20199;-78
2023/08/20 10:24:48;;;;;;;21.93;5.03;;;30.50;55.20;;;;;;5068497;28;20723;-72
2023/08/20 10:27:26;;;;;;;25.30;5.33;;;30.50;54.40;;;;;;5068635;28;20207;-73
2023/08/20 10:29:54;;;;;;;33.73;6.13;;;30.50;54.40;;;;;;5068428;28;20199;-71
2023/08/20 10:32:21;;;;;;;32.70;6.37;;;30.60;54.50;;;;;;5068396;28;20305;-76
2023/08/20 10:34:52;;;;;;;21.58;5.25;;;30.70;54.40;;;;;;5067621;28;20284;-72
2023/08/20 10:37:28;;;;;;;26.87;6.23;;;30.80;54.30;;;;;;5068439;28;20214;-74
2023/08/20 10:39:56;;;;;;;21.25;4.78;;;30.90;54.40;;;;;;5068274;28;20203;-76
2023/08/20 10:42:27;;;;;;;24.73;6.10;;;31.00;54.40;;;;;;5068559;28;20281;-73
2023/08/20 10:45:02;;;;;;;19.85;4.43;;;31.20;54.60;;;;;;5068272;28;20285;-74
2023/08/20 10:47:43;;;;;;;39.07;6.93;;;31.30;54.60;;;;;;5067189;28;20261;-72
2023/08/20 10:50:10;;;;;;;24.00;5.22;;;31.50;54.70;;;;;;5065384;28;20191;-77
2023/08/20 10:52:41;;;;;;;29.77;5.55;;;31.60;54.70;;;;;;5067596;28;20196;-74
2023/08/20 10:55:09;;;;;;;21.65;5.07;;;31.80;54.60;;;;;;5068067;28;20204;-75
2023/08/20 10:57:37;;;;;;;25.48;5.65;;;32.00;54.60;;;;;;5049931;28;20656;-72
2023/08/20 11:00:11;;;;;;;22.58;5.25;;;32.20;54.50;;;;;;5047522;28;20231;-73
2023/08/20 11:02:39;;;;;;;26.25;5.80;;;32.40;54.40;;;;;;5047570;28;20295;-72
2023/08/20 11:05:17;;;;;;;22.05;5.45;;;32.60;54.30;;;;;;5047610;28;20592;-72
2023/08/20 11:07:47;;;;;;;26.90;5.60;;;32.80;54.00;;;;;;5047696;28;20208;-73
2023/08/20 11:10:15;;;;;;;35.10;6.20;;;33.10;53.90;;;;;;5062256;28;20214;-72
2023/08/20 11:12:43;;;;;;;25.00;6.13;;;33.20;53.90;;;;;;5068378;28;20191;-71
2023/08/20 11:15:11;;;;;;;18.63;5.18;;;33.40;53.60;;;;;;5067943;28;20227;-76
2023/08/20 11:17:42;;;;;;;23.23;5.53;;;33.60;53.30;;;;;;5067780;28;20211;-74
2023/08/20 11:20:12;;;;;;;21.08;5.50;;;33.80;53.60;;;;;;5068169;28;20211;-72
2023/08/20 11:22:40;;;;;;;24.90;6.05;;;34.00;52.90;;;;;;5067833;28;20553;-74
2023/08/20 11:25:11;;;;;;;15.25;4.80;;;34.20;52.70;;;;;;5067812;28;20250;-76
2023/08/20 11:27:40;;;;;;;24.98;6.10;;;34.30;52.50;;;;;;5067309;28;20205;-72
2023/08/20 11:30:11;;;;;;;20.70;5.32;;;34.50;52.50;;;;;;5067393;28;20279;-75
2023/08/20 11:32:39;;;;;;;21.73;6.03;;;34.60;52.10;;;;;;5067657;28;20191;-71
2023/08/20 11:35:07;;;;;;;17.50;5.07;;;34.70;52.10;;;;;;5067929;28;20460;-71
2023/08/20 11:37:35;;;;;;;19.98;5.65;;;34.80;52.00;;;;;;5067944;28;20365;-70
2023/08/20 11:40:01;;;;;;;19.63;5.65;;;34.90;51.80;;;;;;5068090;28;20221;-71
2023/08/20 11:42:28;;;;;;;36.38;7.47;;;35.00;51.60;;;;;;5067979;28;20227;-71
2023/08/20 11:44:57;;;;;;;25.45;6.35;;;35.10;51.30;;;;;;5066088;28;20231;-72
2023/08/20 11:47:25;;;;;;;21.25;5.47;;;35.30;51.00;;;;;;5067528;28;20632;-70
2023/08/20 11:50:04;;;;;;;23.58;5.65;;;35.30;50.80;;;;;;5067491;28;20282;-71
2023/08/20 11:52:33;;;;;;;21.65;5.93;;;35.40;50.20;;;;;;5067593;28;20203;-71
2023/08/20 11:55:00;;;;;;;18.58;5.90;;;35.40;50.40;;;;;;5067432;28;20204;-72
2023/08/20 11:57:29;;;;;;;21.08;5.65;;;35.40;50.20;;;;;;5065549;28;20200;-73
2023/08/20 11:59:56;;;;;;;20.15;5.60;;;35.40;50.10;;;;;;5067622;28;20294;-75
2023/08/20 12:02:28;;;;;;;25.95;6.28;;;35.40;49.90;;;;;;5067347;28;20202;-73
2023/08/20 12:04:58;;;;;;;24.20;6.13;;;35.30;49.50;;;;;;5067555;28;20275;-71
2023/08/20 12:07:27;;;;;;;23.77;5.65;;;35.30;49.50;;;;;;5067657;28;20203;-71
2023/08/20 12:09:54;;;;;;;22.20;5.75;;;35.20;49.50;;;;;;5067485;28;20188;-71
2023/08/20 12:12:22;;;;;;;20.60;5.60;;;35.10;49.50;;;;;;5070488;28;20179;-73
2023/08/20 12:14:49;;;;;;;22.05;5.97;;;35.00;49.50;;;;;;5071026;28;20223;-75
2023/08/20 12:17:18;;;;;;;24.15;5.95;;;34.90;49.50;;;;;;5070835;28;20200;-74
2023/08/20 12:19:47;;;;;;;17.73;4.93;;;34.90;49.50;;;;;;5070804;28;20207;-78
2023/08/20 12:22:13;;;;;;;22.45;5.20;;;34.80;49.60;;;;;;5070820;28;20204;-77
2023/08/20 12:24:40;;;;;;;22.90;5.68;;;34.70;49.80;;;;;;5070477;28;20298;-71
2023/08/20 12:27:07;;;;;;;34.85;6.38;;;34.70;50.00;;;;;;5068479;28;20322;-72
2023/08/20 12:29:35;;;;;;;20.88;5.55;;;34.70;50.20;;;;;;5069907;28;20290;-71
2023/08/20 12:32:03;;;;;;;22.58;5.38;;;34.70;50.30;;;;;;5071091;28;20227;-73
2023/08/20 12:34:31;;;;;;;20.75;5.45;;;34.70;50.40;;;;;;5070748;28;20270;-73
2023/08/20 12:36:59;;;;;;;19.70;5.07;;;34.70;50.40;;;;;;5070987;28;20619;-71
2023/08/20 12:39:26;;;;;;;21.83;5.82;;;34.80;50.40;;;;;;5068905;28;20206;-72
2023/08/20 12:41:53;;;;;;;23.85;5.50;;;34.90;50.50;;;;;;5070555;28;20243;-71
2023/08/20 12:44:20;;;;;;;18.15;5.03;;;34.90;50.50;;;;;;5070676;28;20199;-70
2023/08/20 12:46:47;;;;;;;22.80;5.63;;;35.00;50.40;;;;;;5070515;28;20310;-72
2023/08/20 12:49:14;;;;;;;26.98;6.10;;;35.10;50.40;;;;;;5070418;28;20201;-72